createdAt,value
2017-10-24T00:00:43.968Z,1016.14
2017-10-24T00:02:45.379Z,1016.11
2017-10-24T00:04:46.791Z,1016.15
2017-10-24T00:06:48.202Z,1016.09
2017-10-24T00:08:49.613Z,1016.11
2017-10-24T00:10:51.029Z,1016.10
2017-10-24T00:12:52.440Z,1016.12
2017-10-24T00:14:53.853Z,1016.11
2017-10-24T00:16:55.264Z,1016.14
2017-10-24T00:18:56.677Z,1016.09
2017-10-24T00:20:58.095Z,1016.09
2017-10-24T00:22:59.506Z,1016.05
2017-10-24T00:25:41.923Z,1016.03
2017-10-24T00:27:43.333Z,1016.02
2017-10-24T00:29:44.747Z,1016.03
2017-10-24T00:31:46.157Z,1016.03
2017-10-24T00:33:47.567Z,1016.05
2017-10-24T00:35:48.981Z,1016.07
2017-10-24T00:37:50.395Z,1016.05
2017-10-24T00:39:51.810Z,1016.10
2017-10-24T00:41:53.230Z,1016.10
2017-10-24T00:43:54.636Z,1016.08
2017-10-24T00:45:56.065Z,1016.14
2017-10-24T00:47:57.477Z,1016.14
2017-10-24T00:49:58.889Z,1016.14
2017-10-24T00:52:00.299Z,1016.15
2017-10-24T00:54:01.733Z,1016.15
2017-10-24T00:56:03.133Z,1016.16
2017-10-24T00:58:04.544Z,1016.12
2017-10-24T01:00:05.947Z,1016.12
2017-10-24T01:02:07.370Z,1016.09
2017-10-24T01:04:08.782Z,1016.10
2017-10-24T01:06:10.200Z,1016.06
2017-10-24T01:08:11.612Z,1016.10
2017-10-24T01:10:13.027Z,1016.11
2017-10-24T01:12:14.444Z,1016.11
2017-10-24T01:14:15.853Z,1016.18
2017-10-24T01:16:17.309Z,1016.20
2017-10-24T01:18:18.736Z,1016.21
2017-10-24T01:20:20.158Z,1016.15
2017-10-24T01:22:21.581Z,1016.15
2017-10-24T01:24:22.989Z,1016.12
2017-10-24T01:26:24.394Z,1016.16
2017-10-24T01:29:06.812Z,1016.09
2017-10-24T01:31:08.231Z,1016.11
2017-10-24T01:33:09.644Z,1016.14
2017-10-24T01:35:11.052Z,1016.19
2017-10-24T01:37:12.465Z,1016.18
2017-10-24T01:39:13.879Z,1016.15
2017-10-24T01:41:15.292Z,1016.18
2017-10-24T01:43:16.700Z,1016.19
2017-10-24T01:45:18.115Z,1016.11
2017-10-24T01:47:19.532Z,1016.08
2017-10-24T01:49:20.944Z,1016.12
2017-10-24T01:51:22.359Z,1016.12
2017-10-24T01:53:23.774Z,1016.10
2017-10-24T01:55:25.184Z,1016.09
2017-10-24T01:57:26.600Z,1016.11
2017-10-24T02:00:09.011Z,1016.09
2017-10-24T02:02:10.423Z,1016.07
2017-10-24T02:04:11.837Z,1016.01
2017-10-24T02:06:13.247Z,1016.00
2017-10-24T02:08:14.673Z,1015.98
2017-10-24T02:10:16.071Z,1015.94
2017-10-24T02:12:17.481Z,1016.00
2017-10-24T02:14:18.892Z,1016.07
2017-10-24T02:16:20.313Z,1016.08
2017-10-24T02:18:21.722Z,1016.02
2017-10-24T02:20:23.142Z,1015.96
2017-10-24T02:22:24.547Z,1015.90
2017-10-24T02:24:25.956Z,1015.92
2017-10-24T02:26:27.386Z,1015.90
2017-10-24T02:28:28.797Z,1015.90
2017-10-24T02:30:30.205Z,1015.93
2017-10-24T02:32:31.621Z,1015.93
2017-10-24T02:34:33.036Z,1015.98
2017-10-24T02:36:34.446Z,1015.94
2017-10-24T02:38:35.857Z,1015.94
2017-10-24T02:40:37.268Z,1015.93
2017-10-24T02:42:38.685Z,1015.90
2017-10-24T02:44:40.093Z,1015.86
2017-10-24T02:47:22.505Z,1015.81
2017-10-24T02:49:23.920Z,1015.91
2017-10-24T02:51:25.343Z,1015.90
2017-10-24T02:53:26.750Z,1015.82
2017-10-24T02:55:28.171Z,1015.87
2017-10-24T02:58:10.587Z,1015.88
2017-10-24T03:00:12.031Z,1015.92
2017-10-24T03:02:13.438Z,1015.90
2017-10-24T03:04:14.854Z,1015.90
2017-10-24T03:06:16.283Z,1015.93
2017-10-24T03:08:17.687Z,1015.95
2017-10-24T03:10:19.120Z,1015.91
2017-10-24T03:12:20.537Z,1015.92
2017-10-24T03:15:02.951Z,1015.84
2017-10-24T03:17:04.366Z,1015.80
2017-10-24T03:19:05.780Z,1015.85
2017-10-24T03:21:07.190Z,1015.80
2017-10-24T03:23:08.608Z,1015.77
2017-10-24T03:25:10.028Z,1015.76
2017-10-24T03:27:11.440Z,1015.77
2017-10-24T03:29:12.863Z,1015.80
2017-10-24T03:31:14.277Z,1015.81
2017-10-24T03:33:15.707Z,1015.83
2017-10-24T03:35:58.119Z,1015.80
2017-10-24T03:37:59.532Z,1015.83
2017-10-24T03:40:00.943Z,1015.74
2017-10-24T03:42:02.357Z,1015.74
2017-10-24T03:44:03.768Z,1015.77
2017-10-24T03:46:46.214Z,1015.73
2017-10-24T03:48:47.627Z,1015.71
2017-10-24T03:50:49.038Z,1015.68
2017-10-24T03:52:50.454Z,1015.68
2017-10-24T03:54:51.862Z,1015.68
2017-10-24T03:56:53.273Z,1015.66
2017-10-24T03:58:54.693Z,1015.61
2017-10-24T04:00:56.107Z,1015.65
2017-10-24T04:02:57.523Z,1015.66
2017-10-24T04:04:58.954Z,1015.68
2017-10-24T04:07:00.367Z,1015.70
2017-10-24T04:09:01.781Z,1015.65
2017-10-24T04:11:03.192Z,1015.65
2017-10-24T04:13:04.612Z,1015.69
2017-10-24T04:15:06.026Z,1015.66
2017-10-24T04:17:07.442Z,1015.63
2017-10-24T04:19:08.852Z,1015.62
2017-10-24T04:21:10.266Z,1015.55
2017-10-24T04:23:11.681Z,1015.58
2017-10-24T04:25:13.092Z,1015.59
2017-10-24T04:27:14.499Z,1015.64
2017-10-24T04:29:15.917Z,1015.65
2017-10-24T04:31:17.327Z,1015.67
2017-10-24T04:33:18.742Z,1015.65
2017-10-24T04:35:20.156Z,1015.58
2017-10-24T04:37:21.565Z,1015.59
2017-10-24T04:39:22.981Z,1015.52
2017-10-24T04:41:24.403Z,1015.49
2017-10-24T04:43:25.805Z,1015.47
2017-10-24T04:45:27.229Z,1015.43
2017-10-24T04:47:28.643Z,1015.45
2017-10-24T04:49:30.054Z,1015.48
2017-10-24T04:51:31.468Z,1015.47
2017-10-24T04:53:32.880Z,1015.41
2017-10-24T04:55:34.294Z,1015.44
2017-10-24T04:57:35.710Z,1015.47
2017-10-24T04:59:37.121Z,1015.53
2017-10-24T05:01:38.535Z,1015.53
2017-10-24T05:03:39.948Z,1015.48
2017-10-24T05:05:41.360Z,1015.44
2017-10-24T05:07:42.774Z,1015.47
2017-10-24T05:09:44.202Z,1015.51
2017-10-24T05:11:45.599Z,1015.54
2017-10-24T05:13:47.014Z,1015.46
2017-10-24T05:15:48.425Z,1015.47
2017-10-24T05:17:49.842Z,1015.51
2017-10-24T05:19:51.256Z,1015.53
2017-10-24T05:21:52.669Z,1015.53
2017-10-24T05:23:54.080Z,1015.52
2017-10-24T05:25:55.496Z,1015.50
2017-10-24T05:27:56.906Z,1015.46
2017-10-24T05:29:58.329Z,1015.41
2017-10-24T05:31:59.739Z,1015.35
2017-10-24T05:34:01.149Z,1015.35
2017-10-24T05:36:02.568Z,1015.37
2017-10-24T05:38:03.974Z,1015.38
2017-10-24T05:40:05.394Z,1015.36
2017-10-24T05:42:06.802Z,1015.32
2017-10-24T05:44:08.238Z,1015.34
2017-10-24T05:46:09.628Z,1015.39
2017-10-24T05:48:11.043Z,1015.43
2017-10-24T05:50:12.456Z,1015.45
2017-10-24T05:52:13.867Z,1015.48
2017-10-24T05:54:15.281Z,1015.43
2017-10-24T05:56:16.704Z,1015.42
2017-10-24T05:58:18.117Z,1015.44
2017-10-24T06:00:19.528Z,1015.42
2017-10-24T06:02:20.940Z,1015.43
2017-10-24T06:04:22.353Z,1015.43
2017-10-24T06:06:23.775Z,1015.50
2017-10-24T06:08:25.181Z,1015.60
2017-10-24T06:10:26.599Z,1015.62
2017-10-24T06:12:28.011Z,1015.59
2017-10-24T06:14:29.428Z,1015.56
2017-10-24T06:16:30.841Z,1015.55
2017-10-24T06:18:32.258Z,1015.57
2017-10-24T06:20:33.672Z,1015.55
2017-10-24T06:22:35.088Z,1015.51
2017-10-24T06:24:36.497Z,1015.53
2017-10-24T06:26:37.914Z,1015.52
2017-10-24T06:28:39.326Z,1015.56
2017-10-24T06:31:21.737Z,1015.54
2017-10-24T06:33:23.201Z,1015.57
2017-10-24T06:35:24.585Z,1015.65
2017-10-24T06:37:25.996Z,1015.70
2017-10-24T06:39:27.414Z,1015.75
2017-10-24T06:41:28.827Z,1015.76
2017-10-24T06:43:30.241Z,1015.79
2017-10-24T06:45:31.661Z,1015.80
2017-10-24T06:47:33.072Z,1015.88
2017-10-24T06:49:34.478Z,1015.86
2017-10-24T06:51:35.901Z,1015.81
2017-10-24T06:53:37.322Z,1015.77
2017-10-24T06:55:38.742Z,1015.77
2017-10-24T06:57:40.144Z,1015.76
2017-10-24T06:59:41.532Z,1015.80
2017-10-24T07:01:42.944Z,1015.86
2017-10-24T07:03:44.358Z,1015.91
2017-10-24T07:05:45.773Z,1015.91
2017-10-24T07:07:47.186Z,1015.83
2017-10-24T07:09:48.600Z,1015.83
2017-10-24T07:11:50.025Z,1015.78
2017-10-24T07:13:51.433Z,1015.77
2017-10-24T07:15:52.856Z,1015.75
2017-10-24T07:17:54.271Z,1015.75
2017-10-24T07:19:55.687Z,1015.77
2017-10-24T07:21:57.103Z,1015.78
2017-10-24T07:23:58.529Z,1015.82
2017-10-24T07:25:59.941Z,1015.81
2017-10-24T07:28:01.361Z,1015.84
2017-10-24T07:30:02.774Z,1015.84
2017-10-24T07:32:04.216Z,1015.83
2017-10-24T07:34:05.628Z,1015.82
2017-10-24T07:36:07.046Z,1015.81
2017-10-24T07:38:08.459Z,1015.80
2017-10-24T07:40:09.888Z,1015.84
2017-10-24T07:42:11.319Z,1015.80
2017-10-24T07:44:12.739Z,1015.84
2017-10-24T07:46:14.172Z,1015.79
2017-10-24T07:48:56.581Z,1015.77
2017-10-24T07:50:57.999Z,1015.74
2017-10-24T07:52:59.416Z,1015.75
2017-10-24T07:55:00.836Z,1015.78
2017-10-24T07:57:02.254Z,1015.76
2017-10-24T07:59:03.670Z,1015.77
2017-10-24T08:01:05.088Z,1015.81
2017-10-24T08:03:06.504Z,1015.92
2017-10-24T08:05:07.919Z,1015.91
2017-10-24T08:07:09.334Z,1015.95
2017-10-24T08:09:10.754Z,1015.90
2017-10-24T08:11:12.175Z,1015.94
2017-10-24T08:13:13.592Z,1015.95
2017-10-24T08:15:15.016Z,1015.91
2017-10-24T08:17:16.432Z,1015.84
2017-10-24T08:19:17.850Z,1015.82
2017-10-24T08:21:19.270Z,1015.84
2017-10-24T08:23:20.694Z,1015.79
2017-10-24T08:25:22.107Z,1015.79
2017-10-24T08:27:23.523Z,1015.77
2017-10-24T08:29:24.943Z,1015.79
2017-10-24T08:31:26.368Z,1015.72
2017-10-24T08:33:27.782Z,1015.77
2017-10-24T08:36:10.216Z,1015.76
2017-10-24T08:38:11.645Z,1015.78
2017-10-24T08:40:13.054Z,1015.84
2017-10-24T08:42:14.470Z,1015.83
2017-10-24T08:44:15.898Z,1015.84
2017-10-24T08:46:17.320Z,1015.79
2017-10-24T08:48:18.736Z,1015.73
2017-10-24T08:50:20.157Z,1015.81
2017-10-24T08:52:21.578Z,1015.89
2017-10-24T08:54:23.003Z,1015.86
2017-10-24T08:56:24.420Z,1015.89
2017-10-24T08:58:25.830Z,1015.91
2017-10-24T09:00:27.246Z,1016.00
2017-10-24T09:02:28.659Z,1015.97
2017-10-24T09:04:30.073Z,1015.99
2017-10-24T09:06:31.495Z,1015.98
2017-10-24T09:08:32.911Z,1016.01
2017-10-24T09:10:34.333Z,1016.04
2017-10-24T09:12:35.756Z,1016.07
2017-10-24T09:14:37.166Z,1016.04
2017-10-24T09:16:38.587Z,1016.02
2017-10-24T09:18:40.002Z,1015.95
2017-10-24T09:20:41.415Z,1015.89
2017-10-24T09:22:42.832Z,1015.90
2017-10-24T09:25:24.245Z,1015.99
2017-10-24T09:27:25.661Z,1015.95
2017-10-24T09:29:27.078Z,1015.94
2017-10-24T09:31:28.501Z,1016.03
2017-10-24T09:33:29.907Z,1016.02
2017-10-24T09:35:31.328Z,1016.06
2017-10-24T09:37:32.747Z,1016.07
2017-10-24T09:39:34.158Z,1016.05
2017-10-24T09:41:35.577Z,1016.01
2017-10-24T09:43:36.993Z,1016.05
2017-10-24T09:45:38.412Z,1016.06
2017-10-24T09:47:39.829Z,1016.06
2017-10-24T09:49:41.257Z,1016.04
2017-10-24T09:51:42.733Z,1016.08
2017-10-24T09:53:44.266Z,1016.04
2017-10-24T09:55:46.079Z,1015.95
2017-10-24T09:57:47.602Z,1015.95
2017-10-24T09:59:49.082Z,1015.87
2017-10-24T10:01:50.590Z,1015.96
2017-10-24T10:03:52.027Z,1015.77
2017-10-24T10:05:53.494Z,1015.73
2017-10-24T10:07:55.018Z,1015.65
2017-10-24T10:09:56.553Z,1015.64
2017-10-24T10:12:38.940Z,1015.60
2017-10-24T10:14:40.358Z,1015.55
2017-10-24T10:16:41.779Z,1015.63
2017-10-24T10:18:43.192Z,1015.63
2017-10-24T10:20:44.616Z,1015.61
2017-10-24T10:22:46.026Z,1015.58
2017-10-24T10:24:47.445Z,1015.63
2017-10-24T10:26:48.861Z,1015.59
2017-10-24T10:28:50.277Z,1015.59
2017-10-24T10:30:51.706Z,1015.62
2017-10-24T10:32:53.114Z,1015.63
2017-10-24T10:34:54.533Z,1015.64
2017-10-24T10:36:55.952Z,1015.60
2017-10-24T10:38:57.369Z,1015.64
2017-10-24T10:40:58.785Z,1015.56
2017-10-24T10:43:00.218Z,1015.57
2017-10-24T10:45:01.638Z,1015.49
2017-10-24T10:47:03.056Z,1015.52
2017-10-24T10:49:04.472Z,1015.52
2017-10-24T10:51:05.885Z,1015.53
2017-10-24T10:53:07.320Z,1015.45
2017-10-24T10:55:08.912Z,1015.48
2017-10-24T10:57:10.328Z,1015.53
2017-10-24T10:59:51.744Z,1015.47
2017-10-24T11:01:53.160Z,1015.32
2017-10-24T11:03:54.584Z,1015.29
2017-10-24T11:05:55.999Z,1015.23
2017-10-24T11:07:57.419Z,1015.25
2017-10-24T11:09:58.838Z,1015.36
2017-10-24T11:12:00.262Z,1015.32
2017-10-24T11:14:01.683Z,1015.34
2017-10-24T11:16:03.111Z,1015.38
2017-10-24T11:18:04.522Z,1015.43
2017-10-24T11:20:05.944Z,1015.37
2017-10-24T11:22:07.361Z,1015.30
2017-10-24T11:24:08.783Z,1015.29
2017-10-24T11:26:10.200Z,1015.21
2017-10-24T11:28:11.618Z,1015.18
2017-10-24T11:30:54.039Z,1015.15
2017-10-24T11:32:55.449Z,1015.17
2017-10-24T11:34:56.876Z,1015.19
2017-10-24T11:36:58.292Z,1015.23
2017-10-24T11:38:59.712Z,1015.22
2017-10-24T11:41:01.137Z,1015.24
2017-10-24T11:43:02.555Z,1015.24
2017-10-24T11:45:03.973Z,1015.26
2017-10-24T11:47:46.371Z,1015.26
2017-10-24T11:49:47.797Z,1015.29
2017-10-24T11:51:49.211Z,1015.26
2017-10-24T11:53:50.640Z,1015.32
2017-10-24T11:55:52.067Z,1015.25
2017-10-24T11:57:53.483Z,1015.36
2017-10-24T11:59:54.904Z,1015.22
2017-10-24T12:01:56.322Z,1015.27
2017-10-24T12:03:57.741Z,1015.22
2017-10-24T12:05:59.174Z,1015.24
2017-10-24T12:08:00.574Z,1015.28
2017-10-24T12:10:01.996Z,1015.26
2017-10-24T12:12:03.417Z,1015.21
2017-10-24T12:14:04.831Z,1015.18
2017-10-24T12:16:06.253Z,1015.15
2017-10-24T12:18:07.679Z,1015.14
2017-10-24T12:20:09.100Z,1015.11
2017-10-24T12:22:10.518Z,1015.11
2017-10-24T12:24:11.927Z,1015.08
2017-10-24T12:26:13.352Z,1015.10
2017-10-24T12:28:14.765Z,1015.08
2017-10-24T12:30:16.187Z,1015.11
2017-10-24T12:32:17.609Z,1015.10
2017-10-24T12:34:19.019Z,1015.11
2017-10-24T12:36:20.450Z,1015.10
2017-10-24T12:38:21.862Z,1015.00
2017-10-24T12:40:23.284Z,1015.03
2017-10-24T12:42:24.696Z,1015.03
2017-10-24T12:44:26.116Z,1015.02
2017-10-24T12:46:27.629Z,1014.94
2017-10-24T12:48:29.054Z,1014.96
2017-10-24T12:50:30.462Z,1014.93
2017-10-24T12:52:31.880Z,1015.01
2017-10-24T12:54:33.301Z,1015.06
2017-10-24T12:56:34.731Z,1015.03
2017-10-24T12:58:36.160Z,1015.01
2017-10-24T13:00:37.580Z,1015.05
2017-10-24T13:02:39.004Z,1015.01
2017-10-24T13:05:21.417Z,1015.09
2017-10-24T13:07:22.830Z,1015.05
2017-10-24T13:09:24.273Z,1014.95
2017-10-24T13:11:25.676Z,1014.97
2017-10-24T13:13:27.091Z,1014.94
2017-10-24T13:15:28.518Z,1014.96
2017-10-24T13:17:29.950Z,1014.93
2017-10-24T13:19:31.366Z,1014.89
2017-10-24T13:22:13.783Z,1014.82
2017-10-24T13:24:15.203Z,1014.75
2017-10-24T13:26:16.622Z,1014.77
2017-10-24T13:28:18.044Z,1014.74
2017-10-24T13:30:19.465Z,1014.73
2017-10-24T13:32:20.881Z,1014.78
2017-10-24T13:34:22.296Z,1014.80
2017-10-24T13:36:23.717Z,1014.87
2017-10-24T13:38:25.133Z,1014.82
2017-10-24T13:40:26.550Z,1014.84
2017-10-24T13:42:27.969Z,1014.82
2017-10-24T13:44:29.388Z,1014.83
2017-10-24T13:46:30.804Z,1014.80
2017-10-24T13:48:32.226Z,1014.78
2017-10-24T13:50:33.650Z,1014.74
2017-10-24T13:53:16.067Z,1014.79
2017-10-24T13:55:17.492Z,1014.71
2017-10-24T13:57:18.917Z,1014.66
2017-10-24T13:59:20.337Z,1014.68
2017-10-24T14:01:21.767Z,1014.65
2017-10-24T14:03:23.189Z,1014.67
2017-10-24T14:05:24.608Z,1014.70
2017-10-24T14:07:26.025Z,1014.70
2017-10-24T14:10:08.428Z,1014.69
2017-10-24T14:12:09.847Z,1014.70
2017-10-24T14:14:11.268Z,1014.75
2017-10-24T14:16:12.687Z,1014.82
2017-10-24T14:18:14.106Z,1014.82
2017-10-24T14:20:15.525Z,1014.84
2017-10-24T14:22:16.946Z,1014.80
2017-10-24T14:24:18.364Z,1014.73
2017-10-24T14:26:19.782Z,1014.68
2017-10-24T14:28:21.205Z,1014.61
2017-10-24T14:30:22.622Z,1014.62
2017-10-24T14:32:24.051Z,1014.63
2017-10-24T14:34:25.462Z,1014.63
2017-10-24T14:36:26.890Z,1014.64
2017-10-24T14:38:28.302Z,1014.66
2017-10-24T14:41:10.712Z,1014.66
2017-10-24T14:43:12.129Z,1014.64
2017-10-24T14:45:13.547Z,1014.70
2017-10-24T14:47:14.965Z,1014.70
2017-10-24T14:49:16.381Z,1014.68
2017-10-24T14:51:17.803Z,1014.66
2017-10-24T14:53:19.219Z,1014.72
2017-10-24T14:55:20.641Z,1014.70
2017-10-24T14:58:03.163Z,1014.74
2017-10-24T15:00:04.584Z,1014.70
2017-10-24T15:02:06.003Z,1014.72
2017-10-24T15:04:07.420Z,1014.62
2017-10-24T15:06:08.835Z,1014.67
2017-10-24T15:08:10.253Z,1014.66
2017-10-24T15:10:11.675Z,1014.74
2017-10-24T15:12:13.087Z,1014.72
2017-10-24T15:14:14.504Z,1014.74
2017-10-24T15:16:15.919Z,1014.64
2017-10-24T15:18:17.335Z,1014.61
2017-10-24T15:20:18.764Z,1014.65
2017-10-24T15:22:20.188Z,1014.67
2017-10-24T15:24:21.613Z,1014.64
2017-10-24T15:26:23.023Z,1014.68
2017-10-24T15:29:05.431Z,1014.67
2017-10-24T15:31:06.847Z,1014.64
2017-10-24T15:33:08.265Z,1014.58
2017-10-24T15:35:09.696Z,1014.58
2017-10-24T15:37:11.106Z,1014.56
2017-10-24T15:39:12.528Z,1014.59
2017-10-24T15:41:13.949Z,1014.63
2017-10-24T15:43:56.343Z,1014.59
2017-10-24T15:45:57.765Z,1014.62
2017-10-24T15:47:59.181Z,1014.59
2017-10-24T15:50:00.600Z,1014.56
2017-10-24T15:52:02.022Z,1014.52
2017-10-24T15:54:03.437Z,1014.57
2017-10-24T15:56:04.857Z,1014.57
2017-10-24T15:58:06.278Z,1014.61
2017-10-24T16:00:07.695Z,1014.58
2017-10-24T16:02:09.112Z,1014.58
2017-10-24T16:04:10.531Z,1014.56
2017-10-24T16:06:11.948Z,1014.54
2017-10-24T16:08:13.365Z,1014.51
2017-10-24T16:10:14.780Z,1014.46
2017-10-24T16:12:16.196Z,1014.41
2017-10-24T16:14:17.617Z,1014.41
2017-10-24T16:16:19.037Z,1014.42
2017-10-24T16:18:20.447Z,1014.44
2017-10-24T16:20:21.862Z,1014.44
2017-10-24T16:22:23.291Z,1014.43
2017-10-24T16:24:24.698Z,1014.44
2017-10-24T16:26:26.113Z,1014.42
2017-10-24T16:28:27.534Z,1014.44
2017-10-24T16:30:28.945Z,1014.43
2017-10-24T16:32:30.361Z,1014.46
2017-10-24T16:34:31.776Z,1014.44
2017-10-24T16:36:33.193Z,1014.50
2017-10-24T16:38:34.606Z,1014.51
2017-10-24T16:40:36.028Z,1014.55
2017-10-24T16:42:37.447Z,1014.58
2017-10-24T16:44:38.858Z,1014.61
2017-10-24T16:46:40.270Z,1014.56
2017-10-24T16:48:41.687Z,1014.63
2017-10-24T16:50:43.104Z,1014.60
2017-10-24T16:52:44.528Z,1014.64
2017-10-24T16:54:45.938Z,1014.59
2017-10-24T16:56:47.362Z,1014.64
2017-10-24T16:58:48.778Z,1014.61
2017-10-24T17:00:50.191Z,1014.66
2017-10-24T17:03:32.627Z,1014.66
2017-10-24T17:05:34.041Z,1014.67
2017-10-24T17:07:35.459Z,1014.65
2017-10-24T17:09:36.874Z,1014.68
2017-10-24T17:11:38.287Z,1014.76
2017-10-24T17:13:39.699Z,1014.75
2017-10-24T17:15:41.119Z,1014.78
2017-10-24T17:17:42.540Z,1014.81
2017-10-24T17:20:24.939Z,1014.81
2017-10-24T17:22:26.354Z,1014.75
2017-10-24T17:24:27.776Z,1014.70
2017-10-24T17:26:29.185Z,1014.76
2017-10-24T17:28:30.606Z,1014.75
2017-10-24T17:30:32.026Z,1014.73
2017-10-24T17:32:33.445Z,1014.71
2017-10-24T17:34:34.862Z,1014.67
2017-10-24T17:36:36.278Z,1014.67
2017-10-24T17:38:37.693Z,1014.71
2017-10-24T17:40:39.111Z,1014.76
2017-10-24T17:42:40.528Z,1014.77
2017-10-24T17:44:41.942Z,1014.70
2017-10-24T17:46:43.357Z,1014.78
2017-10-24T17:48:44.774Z,1014.80
2017-10-24T17:51:27.179Z,1014.83
2017-10-24T17:53:28.595Z,1014.81
2017-10-24T17:55:30.008Z,1014.80
2017-10-24T17:57:31.427Z,1014.81
2017-10-24T17:59:32.850Z,1014.76
2017-10-24T18:01:34.267Z,1014.73
2017-10-24T18:03:35.684Z,1014.70
2017-10-24T18:05:37.100Z,1014.63
2017-10-24T18:07:38.524Z,1014.64
2017-10-24T18:09:39.934Z,1014.62
2017-10-24T18:11:41.353Z,1014.61
2017-10-24T18:13:42.770Z,1014.56
2017-10-24T18:15:44.188Z,1014.57
2017-10-24T18:17:45.609Z,1014.62
2017-10-24T18:19:47.023Z,1014.60
2017-10-24T18:22:29.432Z,1014.57
2017-10-24T18:24:30.846Z,1014.59
2017-10-24T18:26:32.271Z,1014.57
2017-10-24T18:28:33.687Z,1014.60
2017-10-24T18:30:35.107Z,1014.57
2017-10-24T18:32:36.522Z,1014.60
2017-10-24T18:34:37.941Z,1014.60
2017-10-24T18:36:39.364Z,1014.59
2017-10-24T18:39:21.764Z,1014.64
2017-10-24T18:41:23.194Z,1014.56
2017-10-24T18:43:24.610Z,1014.53
2017-10-24T18:45:26.024Z,1014.48
2017-10-24T18:47:27.441Z,1014.53
2017-10-24T18:49:28.858Z,1014.52
2017-10-24T18:51:30.274Z,1014.50
2017-10-24T18:53:31.695Z,1014.57
2017-10-24T18:55:33.113Z,1014.57
2017-10-24T18:57:34.526Z,1014.55
2017-10-24T18:59:35.964Z,1014.54
2017-10-24T19:01:37.384Z,1014.59
2017-10-24T19:03:38.799Z,1014.51
2017-10-24T19:05:40.216Z,1014.58
2017-10-24T19:07:41.634Z,1014.63
2017-10-24T19:10:24.058Z,1014.59
2017-10-24T19:12:25.476Z,1014.54
2017-10-24T19:14:26.891Z,1014.56
2017-10-24T19:16:28.309Z,1014.49
2017-10-24T19:18:29.727Z,1014.50
2017-10-24T19:20:31.146Z,1014.55
2017-10-24T19:22:32.566Z,1014.51
2017-10-24T19:24:33.985Z,1014.46
2017-10-24T19:26:35.404Z,1014.47
2017-10-24T19:28:36.829Z,1014.45
2017-10-24T19:30:38.249Z,1014.45
2017-10-24T19:32:39.661Z,1014.41
2017-10-24T19:34:41.085Z,1014.38
2017-10-24T19:36:42.506Z,1014.41
2017-10-24T19:38:43.929Z,1014.45
2017-10-24T19:40:45.344Z,1014.41
2017-10-24T19:42:46.769Z,1014.43
2017-10-24T19:44:48.193Z,1014.45
2017-10-24T19:46:49.607Z,1014.43
2017-10-24T19:48:51.025Z,1014.57
2017-10-24T19:50:52.444Z,1014.48
2017-10-24T19:52:53.917Z,1014.52
2017-10-24T19:54:55.329Z,1014.55
2017-10-24T19:56:56.743Z,1014.59
2017-10-24T19:58:58.159Z,1014.55
2017-10-24T20:00:59.577Z,1014.65
2017-10-24T20:03:00.993Z,1014.62
2017-10-24T20:05:02.412Z,1014.58
2017-10-24T20:07:03.833Z,1014.59
2017-10-24T20:09:05.248Z,1014.57
2017-10-24T20:11:06.665Z,1014.62
2017-10-24T20:13:08.083Z,1014.63
2017-10-24T20:15:09.497Z,1014.62
2017-10-24T20:17:10.925Z,1014.66
2017-10-24T20:19:12.336Z,1014.64
2017-10-24T20:21:13.751Z,1014.64
2017-10-24T20:23:15.171Z,1014.66
2017-10-24T20:25:16.614Z,1014.62
2017-10-24T20:27:18.008Z,1014.67
2017-10-24T20:29:19.425Z,1014.66
2017-10-24T20:31:20.839Z,1014.68
2017-10-24T20:33:22.263Z,1014.67
2017-10-24T20:35:23.684Z,1014.65
2017-10-24T20:37:25.100Z,1014.68
2017-10-24T20:39:26.521Z,1014.63
2017-10-24T20:41:27.933Z,1014.64
2017-10-24T20:43:29.351Z,1014.62
2017-10-24T20:46:11.905Z,1014.64
2017-10-24T20:48:13.321Z,1014.74
2017-10-24T20:50:14.733Z,1014.69
2017-10-24T20:52:16.154Z,1014.68
2017-10-24T20:54:17.576Z,1014.73
2017-10-24T20:56:18.997Z,1014.70
2017-10-24T20:58:20.412Z,1014.74
2017-10-24T21:00:21.834Z,1014.78
2017-10-24T21:02:23.251Z,1014.75
2017-10-24T21:04:24.667Z,1014.76
2017-10-24T21:06:26.089Z,1014.78
2017-10-24T21:08:27.512Z,1014.73
2017-10-24T21:10:28.934Z,1014.75
2017-10-24T21:12:30.352Z,1014.79
2017-10-24T21:14:31.769Z,1014.79
2017-10-24T21:16:33.192Z,1014.80
2017-10-24T21:18:34.606Z,1014.79
2017-10-24T21:20:36.029Z,1014.77
2017-10-24T21:22:37.441Z,1014.73
2017-10-24T21:24:38.856Z,1014.72
2017-10-24T21:26:40.276Z,1014.73
2017-10-24T21:28:41.712Z,1014.77
2017-10-24T21:30:43.136Z,1014.76
2017-10-24T21:32:44.547Z,1014.75
2017-10-24T21:34:45.965Z,1014.74
2017-10-24T21:36:47.388Z,1014.70
2017-10-24T21:38:48.809Z,1014.71
2017-10-24T21:40:50.223Z,1014.71
2017-10-24T21:42:51.643Z,1014.71
2017-10-24T21:44:53.057Z,1014.66
2017-10-24T21:46:54.471Z,1014.69
2017-10-24T21:48:55.888Z,1014.68
2017-10-24T21:50:57.302Z,1014.69
2017-10-24T21:52:59.548Z,1014.67
2017-10-24T21:55:00.992Z,1014.61
2017-10-24T21:57:02.409Z,1014.62
2017-10-24T21:59:03.821Z,1014.62
2017-10-24T22:01:05.242Z,1014.62
2017-10-24T22:03:06.679Z,1014.59
2017-10-24T22:05:08.126Z,1014.56
2017-10-24T22:07:09.558Z,1014.50
2017-10-24T22:09:11.107Z,1014.53
2017-10-24T22:11:12.560Z,1014.54
2017-10-24T22:13:14.015Z,1014.49
2017-10-24T22:15:15.449Z,1014.44
2017-10-24T22:17:16.878Z,1014.45
2017-10-24T22:19:59.296Z,1014.44
2017-10-24T22:22:00.722Z,1014.44
2017-10-24T22:24:02.171Z,1014.42
2017-10-24T22:26:03.978Z,1014.46
2017-10-24T22:28:05.387Z,1014.46
2017-10-24T22:30:06.816Z,1014.50
2017-10-24T22:32:08.237Z,1014.39
2017-10-24T22:34:09.641Z,1014.39
2017-10-24T22:36:52.162Z,1014.44
2017-10-24T22:38:53.611Z,1014.42
2017-10-24T22:40:55.031Z,1014.41
2017-10-24T22:43:37.449Z,1014.38
2017-10-24T22:45:38.900Z,1014.37
2017-10-24T22:47:40.540Z,1014.35
2017-10-24T22:49:42.302Z,1014.32
2017-10-24T22:51:43.728Z,1014.36
2017-10-24T22:53:45.144Z,1014.32
2017-10-24T22:55:46.699Z,1014.40
2017-10-24T22:57:48.173Z,1014.33
2017-10-24T22:59:49.754Z,1014.32
2017-10-24T23:01:51.168Z,1014.33
2017-10-24T23:03:52.702Z,1014.38
2017-10-24T23:06:35.123Z,1014.42
2017-10-24T23:08:36.532Z,1014.41
2017-10-24T23:10:37.957Z,1014.44
2017-10-24T23:12:39.395Z,1014.44
2017-10-24T23:14:40.832Z,1014.49
2017-10-24T23:16:42.303Z,1014.50
2017-10-24T23:18:43.725Z,1014.56
2017-10-24T23:20:45.181Z,1014.60
2017-10-24T23:23:27.577Z,1014.59
2017-10-24T23:25:29.000Z,1014.56
2017-10-24T23:27:30.425Z,1014.60
2017-10-24T23:29:31.857Z,1014.61
2017-10-24T23:31:33.262Z,1014.59
2017-10-24T23:33:34.829Z,1014.55
2017-10-24T23:35:36.242Z,1014.47
2017-10-24T23:37:37.675Z,1014.55
2017-10-24T23:39:39.118Z,1014.58
2017-10-24T23:41:40.544Z,1014.64
2017-10-24T23:43:41.982Z,1014.57
2017-10-24T23:45:43.411Z,1014.65
2017-10-24T23:47:44.844Z,1014.64
2017-10-24T23:49:46.285Z,1014.70
2017-10-24T23:51:47.714Z,1014.60
2017-10-24T23:53:49.112Z,1014.60
2017-10-24T23:55:50.537Z,1014.62
2017-10-24T23:57:51.977Z,1014.55
2017-10-24T23:59:53.394Z,1014.58
